Time;durP1;ratioP1;P1;durP2;ratioP2;P2;SDS_P1;SDS_P2;PMS_P1;PMS_P2;Temp;Humidity;BMP_temperature;BMP_pressure;BME280_temperature;BME280_humidity;BME280_pressure;Samples;Min_cycle;Max_cycle;Signal;HPM_P1;HPM_P2
2022/04/05 00:00:17;;;;;;;6.55;1.80;;;7.10;99.90;;;;;;5033682;28;20049;-71
2022/04/05 00:02:42;;;;;;;7.72;1.70;;;7.10;99.90;;;;;;5051558;28;20596;-69
2022/04/05 00:05:08;;;;;;;6.72;1.60;;;7.10;99.90;;;;;;5056205;28;20730;-70
2022/04/05 00:07:34;;;;;;;8.68;1.70;;;7.10;99.90;;;;;;5048232;28;20033;-69
2022/04/05 00:10:00;;;;;;;7.60;1.67;;;7.00;99.90;;;;;;5047530;28;20025;-69
2022/04/05 00:12:26;;;;;;;8.18;1.75;;;7.00;99.90;;;;;;5046217;28;20022;-69
2022/04/05 00:14:52;;;;;;;7.55;2.00;;;7.00;99.90;;;;;;5051681;28;20021;-70
2022/04/05 00:17:18;;;;;;;7.25;1.60;;;7.00;99.90;;;;;;5050793;28;20041;-69
2022/04/05 00:19:44;;;;;;;7.68;1.48;;;7.00;99.90;;;;;;5051888;28;20045;-69
2022/04/05 00:22:09;;;;;;;7.40;1.60;;;6.90;99.90;;;;;;5052828;28;20037;-69
2022/04/05 00:24:35;;;;;;;9.32;1.92;;;6.90;99.90;;;;;;5055161;28;20569;-69
2022/04/05 00:27:01;;;;;;;7.35;1.40;;;6.90;99.90;;;;;;5049111;28;20052;-69
2022/04/05 00:29:26;;;;;;;7.78;1.70;;;6.90;99.90;;;;;;5046946;28;20044;-69
2022/04/05 00:31:52;;;;;;;6.97;1.50;;;6.90;99.90;;;;;;5055830;28;20026;-70
2022/04/05 00:34:18;;;;;;;5.75;1.40;;;6.90;99.90;;;;;;5048488;28;20100;-69
2022/04/05 00:36:44;;;;;;;6.32;1.60;;;6.80;99.90;;;;;;5046738;28;20028;-72
2022/04/05 00:39:11;;;;;;;5.55;1.33;;;6.90;99.90;;;;;;5047709;28;20400;-70
2022/04/05 00:41:37;;;;;;;6.00;1.55;;;6.80;99.90;;;;;;5046263;28;20034;-70
2022/04/05 00:44:03;;;;;;;7.57;1.40;;;6.80;99.90;;;;;;5044926;28;20105;-70
2022/04/05 00:46:29;;;;;;;7.47;1.33;;;6.80;99.90;;;;;;5046398;28;20064;-70
2022/04/05 00:48:57;;;;;;;5.15;1.33;;;6.80;99.90;;;;;;5026454;28;20033;-69
2022/04/05 00:51:23;;;;;;;7.50;1.48;;;6.80;99.90;;;;;;5050766;28;20056;-70
2022/04/05 00:53:53;;;;;;;9.35;1.50;;;6.80;99.90;;;;;;5042411;28;20047;-70
2022/04/05 00:56:20;;;;;;;6.75;1.60;;;6.70;99.90;;;;;;5040820;28;20021;-70
2022/04/05 00:58:53;;;;;;;6.63;1.70;;;6.70;99.90;;;;;;5054335;28;20132;-70
2022/04/05 01:01:21;;;;;;;8.75;1.60;;;6.70;99.90;;;;;;5045097;28;20049;-70
2022/04/05 01:03:49;;;;;;;7.18;1.77;;;6.70;99.90;;;;;;5044093;28;20037;-70
2022/04/05 01:06:22;;;;;;;7.97;1.92;;;6.70;99.90;;;;;;5057671;28;20032;-71
2022/04/05 01:08:49;;;;;;;10.80;1.85;;;6.70;99.90;;;;;;5037315;28;20037;-70
2022/04/05 01:11:15;;;;;;;11.02;1.95;;;6.70;99.90;;;;;;5057595;28;20028;-70
2022/04/05 01:13:42;;;;;;;8.70;1.63;;;6.70;99.90;;;;;;5057460;28;20085;-70
2022/04/05 01:16:09;;;;;;;8.10;1.33;;;6.70;99.90;;;;;;5052015;28;20029;-70
2022/04/05 01:18:35;;;;;;;8.32;1.52;;;6.60;99.90;;;;;;5050435;28;20025;-71
2022/04/05 01:21:01;;;;;;;6.72;1.85;;;6.60;99.90;;;;;;5039912;28;20049;-71
2022/04/05 01:23:26;;;;;;;6.13;1.35;;;6.60;99.90;;;;;;5038960;28;20505;-70
2022/04/05 01:25:52;;;;;;;8.20;1.60;;;6.70;99.90;;;;;;5025019;28;20037;-70
2022/04/05 01:28:19;;;;;;;10.38;1.63;;;6.70;99.90;;;;;;5036538;28;20080;-70
2022/04/05 01:30:45;;;;;;;7.63;1.77;;;6.60;99.90;;;;;;5046354;28;20029;-70
2022/04/05 01:33:11;;;;;;;7.68;1.83;;;6.60;99.90;;;;;;5052442;28;20051;-71
2022/04/05 01:35:36;;;;;;;6.47;1.52;;;6.70;99.90;;;;;;5046976;28;20021;-71
2022/04/05 01:38:07;;;;;;;8.98;1.90;;;6.60;99.90;;;;;;5051179;28;20382;-71
2022/04/05 01:40:33;;;;;;;8.45;1.85;;;6.60;99.90;;;;;;5048982;28;20096;-70
2022/04/05 01:42:59;;;;;;;9.30;1.70;;;6.60;99.90;;;;;;5047849;28;20051;-70
2022/04/05 01:45:25;;;;;;;6.43;1.33;;;6.60;99.90;;;;;;5055651;28;20494;-71
2022/04/05 01:47:51;;;;;;;9.18;1.88;;;6.60;99.90;;;;;;5049316;28;20029;-71
2022/04/05 01:50:16;;;;;;;9.60;1.83;;;6.60;99.90;;;;;;5049346;28;20084;-70
2022/04/05 01:52:42;;;;;;;7.32;1.67;;;6.60;99.90;;;;;;5049113;28;20151;-71
2022/04/05 01:55:08;;;;;;;10.90;1.83;;;6.60;99.90;;;;;;5041033;28;20400;-71
2022/04/05 01:57:34;;;;;;;9.55;1.88;;;6.60;99.90;;;;;;5049008;28;20017;-71
2022/04/05 02:00:02;;;;;;;7.28;1.42;;;6.60;99.90;;;;;;5049302;28;20216;-71
2022/04/05 02:02:28;;;;;;;7.63;1.55;;;6.60;99.90;;;;;;5044000;28;20050;-70
2022/04/05 02:04:53;;;;;;;10.35;1.67;;;6.50;99.90;;;;;;5046550;28;20472;-71
2022/04/05 02:07:19;;;;;;;7.88;1.65;;;6.50;99.90;;;;;;5050222;28;20102;-70
2022/04/05 02:09:48;;;;;;;8.73;1.45;;;6.50;99.90;;;;;;5047385;28;20036;-70
2022/04/05 02:12:15;;;;;;;6.82;1.63;;;6.50;99.90;;;;;;5044912;28;20492;-70
2022/04/05 02:14:41;;;;;;;7.25;1.33;;;6.50;99.90;;;;;;5042642;28;20104;-71
2022/04/05 02:17:07;;;;;;;7.13;1.60;;;6.50;99.90;;;;;;5050359;28;20035;-71
2022/04/05 02:19:34;;;;;;;8.35;1.45;;;6.50;99.90;;;;;;5052967;28;20040;-70
2022/04/05 02:22:00;;;;;;;9.32;1.67;;;6.40;99.90;;;;;;5046508;28;20450;-70
2022/04/05 02:24:26;;;;;;;8.00;1.80;;;6.40;99.90;;;;;;5045108;28;20087;-71
2022/04/05 02:26:51;;;;;;;7.47;1.40;;;6.40;99.90;;;;;;5045331;28;20037;-70
2022/04/05 02:29:17;;;;;;;5.97;1.52;;;6.50;99.90;;;;;;5048332;28;20040;-71
2022/04/05 02:31:43;;;;;;;8.02;1.80;;;6.40;99.90;;;;;;5049980;28;20032;-71
2022/04/05 02:34:09;;;;;;;6.43;1.30;;;6.50;99.90;;;;;;5076939;28;20052;-71
2022/04/05 02:36:35;;;;;;;7.07;1.23;;;6.50;99.90;;;;;;5057096;28;20020;-71
2022/04/05 02:39:02;;;;;;;9.25;1.50;;;6.50;99.90;;;;;;5056303;28;20060;-70
2022/04/05 02:41:28;;;;;;;8.98;1.80;;;6.50;99.90;;;;;;5051276;28;20021;-71
2022/04/05 02:43:53;;;;;;;7.10;1.55;;;6.50;99.90;;;;;;5049963;28;20025;-71
2022/04/05 02:46:20;;;;;;;6.20;1.73;;;6.50;99.90;;;;;;5073216;28;20046;-70
2022/04/05 02:48:46;;;;;;;6.00;1.50;;;6.50;99.90;;;;;;5053286;28;20028;-69
2022/04/05 02:51:16;;;;;;;8.13;1.50;;;6.50;99.90;;;;;;5035272;28;20510;-72
2022/04/05 02:53:43;;;;;;;5.88;1.60;;;6.50;99.90;;;;;;5049249;28;20045;-71
2022/04/05 02:56:09;;;;;;;8.60;1.98;;;6.50;99.90;;;;;;5055055;28;20029;-71
2022/04/05 02:58:36;;;;;;;5.93;1.60;;;6.50;99.90;;;;;;5044605;28;20112;-72
2022/04/05 03:01:02;;;;;;;6.10;1.38;;;6.50;99.90;;;;;;5049209;28;20068;-72
2022/04/05 03:03:27;;;;;;;5.47;1.20;;;6.50;99.90;;;;;;5040063;28;20017;-70
2022/04/05 03:05:53;;;;;;;8.23;1.80;;;6.50;99.90;;;;;;5055017;28;20072;-70
2022/04/05 03:08:19;;;;;;;5.65;1.65;;;6.50;99.90;;;;;;5062547;28;20033;-70
2022/04/05 03:10:45;;;;;;;9.52;1.80;;;6.50;99.90;;;;;;5046594;28;20132;-70
2022/04/05 03:13:12;;;;;;;7.30;1.77;;;6.60;99.90;;;;;;5054969;28;20037;-70
2022/04/05 03:15:37;;;;;;;7.90;1.60;;;6.50;99.90;;;;;;5059607;28;21394;-70
2022/04/05 03:18:03;;;;;;;10.82;2.00;;;6.60;99.90;;;;;;5043032;28;20064;-70
2022/04/05 03:20:31;;;;;;;8.32;1.63;;;6.60;99.90;;;;;;5044653;28;20165;-70
2022/04/05 03:22:59;;;;;;;6.57;1.55;;;6.60;99.90;;;;;;5045867;28;20030;-70
2022/04/05 03:25:24;;;;;;;6.90;1.90;;;6.60;99.90;;;;;;5032885;28;20033;-70
2022/04/05 03:27:50;;;;;;;9.13;1.98;;;6.60;99.90;;;;;;5043810;28;20036;-70
2022/04/05 03:30:17;;;;;;;9.90;1.90;;;6.60;99.90;;;;;;5041458;28;20695;-70
2022/04/05 03:32:43;;;;;;;11.15;4.47;;;6.60;99.90;;;;;;5047407;28;20029;-70
2022/04/05 03:35:09;;;;;;;10.90;3.03;;;6.60;99.90;;;;;;5050272;28;20598;-70
2022/04/05 03:37:35;;;;;;;13.15;4.60;;;6.60;99.90;;;;;;5055492;28;20120;-70
2022/04/05 03:40:01;;;;;;;7.85;2.10;;;6.60;99.90;;;;;;5027525;28;20479;-70
2022/04/05 03:42:27;;;;;;;9.02;2.53;;;6.60;99.90;;;;;;5046896;28;20092;-70
2022/04/05 03:44:53;;;;;;;8.32;1.92;;;6.60;99.90;;;;;;5057289;28;20053;-70
2022/04/05 03:47:18;;;;;;;9.10;2.00;;;6.60;99.90;;;;;;5038322;28;20049;-70
2022/04/05 03:49:44;;;;;;;13.52;5.25;;;6.60;99.90;;;;;;5049814;28;20025;-70
2022/04/05 03:52:10;;;;;;;9.75;3.35;;;6.60;99.90;;;;;;5056835;28;20036;-70
2022/04/05 03:54:36;;;;;;;9.88;2.10;;;6.60;99.90;;;;;;5041414;28;20037;-71
2022/04/05 03:57:02;;;;;;;8.00;2.25;;;6.60;99.90;;;;;;5046967;28;20047;-70
2022/04/05 03:59:28;;;;;;;9.27;2.33;;;6.60;99.90;;;;;;5041032;28;20048;-70
2022/04/05 04:01:54;;;;;;;8.85;2.05;;;6.60;99.90;;;;;;5056582;28;20036;-71
2022/04/05 04:04:20;;;;;;;9.70;2.15;;;6.60;99.90;;;;;;5039427;28;20055;-69
2022/04/05 04:06:45;;;;;;;11.48;2.30;;;6.60;99.90;;;;;;5051691;28;20127;-70
2022/04/05 04:09:11;;;;;;;7.57;2.10;;;6.60;99.90;;;;;;5045129;28;20028;-70
2022/04/05 04:11:40;;;;;;;9.07;2.28;;;6.60;99.90;;;;;;5050372;28;20039;-70
2022/04/05 04:14:06;;;;;;;10.05;2.40;;;6.60;99.90;;;;;;5058428;28;20673;-70
2022/04/05 04:16:32;;;;;;;8.27;2.55;;;6.60;99.90;;;;;;5037907;28;20036;-70
2022/04/05 04:18:58;;;;;;;8.85;2.08;;;6.60;99.90;;;;;;5041917;28;20381;-70
2022/04/05 04:21:23;;;;;;;11.77;3.55;;;6.60;99.90;;;;;;5048654;28;20036;-70
2022/04/05 04:23:49;;;;;;;15.15;5.43;;;6.60;99.90;;;;;;5046972;28;20058;-71
2022/04/05 04:26:14;;;;;;;10.77;2.38;;;6.60;99.90;;;;;;5045440;28;20033;-70
2022/04/05 04:28:40;;;;;;;9.57;2.58;;;6.60;99.90;;;;;;5050720;28;20096;-69
2022/04/05 04:31:06;;;;;;;9.10;2.30;;;6.60;99.90;;;;;;5052811;28;20052;-69
2022/04/05 04:33:31;;;;;;;9.75;3.10;;;6.60;99.90;;;;;;5055503;28;20057;-70
2022/04/05 04:35:58;;;;;;;15.25;2.70;;;6.60;99.90;;;;;;5045454;28;20037;-70
2022/04/05 04:38:24;;;;;;;7.57;2.75;;;6.60;99.90;;;;;;5045705;28;20020;-70
2022/04/05 04:40:50;;;;;;;12.88;2.80;;;6.60;99.90;;;;;;5034745;28;20056;-70
2022/04/05 04:43:17;;;;;;;9.38;2.35;;;6.60;99.90;;;;;;5059055;28;20037;-70
2022/04/05 04:45:44;;;;;;;12.55;2.83;;;6.60;99.90;;;;;;5044010;28;20025;-71
2022/04/05 04:48:10;;;;;;;10.32;2.70;;;6.60;99.90;;;;;;5069362;28;20040;-70
2022/04/05 04:50:36;;;;;;;8.98;2.92;;;6.60;99.90;;;;;;5042065;28;20025;-70
2022/04/05 04:53:02;;;;;;;10.65;2.53;;;6.50;99.90;;;;;;5052099;28;20111;-71
2022/04/05 04:55:28;;;;;;;14.02;3.00;;;6.50;99.90;;;;;;5051595;28;20024;-71
2022/04/05 04:57:54;;;;;;;8.70;2.65;;;6.60;99.90;;;;;;5034204;28;20035;-71
2022/04/05 05:00:20;;;;;;;10.60;2.70;;;6.50;99.90;;;;;;5044209;28;20531;-71
2022/04/05 05:02:47;;;;;;;10.10;2.45;;;6.50;99.90;;;;;;5047103;28;20040;-71
2022/04/05 05:05:19;;;;;;;8.30;2.55;;;6.50;99.90;;;;;;5033869;28;20595;-69
2022/04/05 05:07:45;;;;;;;;;;;6.50;99.90;;;;;;5052046;28;20044;-70
2022/04/05 05:10:15;;;;;;;7.65;1.90;;;6.50;99.90;;;;;;5041783;28;19962;-72
2022/04/05 05:12:41;;;;;;;12.00;2.55;;;6.50;99.90;;;;;;5048549;28;20065;-71
2022/04/05 05:15:08;;;;;;;11.93;2.63;;;6.50;99.90;;;;;;5080403;28;20044;-71
2022/04/05 05:17:35;;;;;;;11.70;2.80;;;6.50;99.90;;;;;;5053875;28;20028;-71
2022/04/05 05:20:02;;;;;;;9.48;2.72;;;6.50;99.90;;;;;;5044519;28;20127;-71
2022/04/05 05:22:28;;;;;;;9.77;2.20;;;6.50;99.90;;;;;;5055526;28;20034;-71
2022/04/05 05:24:53;;;;;;;7.97;2.22;;;6.50;99.90;;;;;;5050658;28;20052;-71
2022/04/05 05:27:19;;;;;;;7.32;2.55;;;6.50;99.90;;;;;;5046821;28;20034;-71
2022/04/05 05:29:44;;;;;;;9.82;2.53;;;6.50;99.90;;;;;;5081675;28;20029;-71
2022/04/05 05:32:10;;;;;;;10.50;2.60;;;6.50;99.90;;;;;;5052063;28;20056;-71
2022/04/05 05:34:36;;;;;;;9.35;2.10;;;6.60;99.90;;;;;;5035947;28;20048;-71
2022/04/05 05:37:03;;;;;;;9.57;2.50;;;6.50;99.90;;;;;;5047880;28;20027;-71
2022/04/05 05:39:29;;;;;;;8.55;2.15;;;6.60;99.90;;;;;;5036710;28;20044;-71
2022/04/05 05:41:54;;;;;;;7.32;2.38;;;6.60;99.90;;;;;;5042371;28;21300;-72
2022/04/05 05:44:20;;;;;;;9.63;2.20;;;6.60;99.90;;;;;;5052833;28;20473;-71
2022/04/05 05:46:46;;;;;;;9.98;2.00;;;6.60;99.90;;;;;;5048294;28;20024;-71
2022/04/05 05:49:12;;;;;;;6.45;1.92;;;6.70;99.90;;;;;;5058253;28;20111;-72
2022/04/05 05:51:38;;;;;;;8.68;2.35;;;6.70;99.90;;;;;;5042474;28;20022;-70
2022/04/05 05:54:04;;;;;;;9.68;2.55;;;6.70;99.90;;;;;;5047869;28;20509;-73
2022/04/05 05:56:30;;;;;;;12.25;2.20;;;6.70;99.90;;;;;;5054786;28;20091;-70
2022/04/05 05:58:56;;;;;;;10.68;2.33;;;6.80;99.90;;;;;;5053113;28;20059;-72
2022/04/05 06:01:23;;;;;;;10.40;1.90;;;6.70;99.90;;;;;;5055994;28;20041;-72
2022/04/05 06:03:49;;;;;;;9.13;2.10;;;6.80;99.90;;;;;;5053859;28;20100;-72
2022/04/05 06:06:14;;;;;;;7.55;1.95;;;6.80;99.90;;;;;;5055709;28;20017;-72
2022/04/05 06:08:40;;;;;;;10.85;1.92;;;6.90;99.90;;;;;;5055328;28;20488;-72
2022/04/05 06:11:07;;;;;;;8.70;2.00;;;6.90;99.90;;;;;;5063131;28;20050;-72
2022/04/05 06:13:34;;;;;;;8.50;1.58;;;6.90;99.90;;;;;;5061484;28;20029;-72
2022/04/05 06:16:00;;;;;;;8.23;1.80;;;7.00;99.90;;;;;;5052777;28;20037;-72
2022/04/05 06:18:25;;;;;;;8.65;1.70;;;6.90;99.90;;;;;;5058672;28;20052;-72
2022/04/05 06:20:51;;;;;;;7.00;1.80;;;7.00;99.90;;;;;;5047115;28;20065;-70
2022/04/05 06:23:17;;;;;;;11.57;2.15;;;7.00;99.90;;;;;;5063162;28;20075;-71
2022/04/05 06:25:42;;;;;;;7.57;1.65;;;7.00;99.90;;;;;;5043375;28;20080;-71
2022/04/05 06:28:09;;;;;;;9.65;1.90;;;7.00;99.90;;;;;;5061013;28;20025;-71
2022/04/05 06:30:37;;;;;;;8.85;2.35;;;7.00;99.90;;;;;;5062597;28;20056;-71
2022/04/05 06:33:09;;;;;;;7.45;1.90;;;7.00;99.90;;;;;;5052771;28;20545;-71
2022/04/05 06:35:37;;;;;;;9.20;1.85;;;7.10;99.90;;;;;;5054843;28;20575;-71
2022/04/05 06:38:02;;;;;;;10.10;1.90;;;7.10;99.90;;;;;;5064261;28;20107;-71
2022/04/05 06:40:28;;;;;;;6.20;1.75;;;7.20;99.90;;;;;;5056158;28;20576;-71
2022/04/05 06:42:54;;;;;;;11.55;1.75;;;7.30;99.90;;;;;;5056933;28;20021;-71
2022/04/05 06:45:21;;;;;;;9.82;1.70;;;7.30;99.90;;;;;;5060850;28;20021;-71
2022/04/05 06:47:47;;;;;;;6.65;1.30;;;7.40;99.90;;;;;;5050059;28;20094;-70
2022/04/05 06:50:16;;;;;;;7.93;1.67;;;7.50;99.90;;;;;;5024657;28;20399;-71
2022/04/05 06:52:43;;;;;;;6.00;1.35;;;7.50;99.90;;;;;;5047561;28;20033;-71
2022/04/05 06:55:10;;;;;;;10.43;1.98;;;7.60;99.90;;;;;;5053091;28;20476;-71
2022/04/05 06:57:36;;;;;;;6.57;1.50;;;7.60;99.90;;;;;;5055232;28;20029;-71
2022/04/05 07:00:06;;;;;;;5.07;1.40;;;7.70;99.90;;;;;;5045431;28;20508;-71
2022/04/05 07:02:35;;;;;;;8.88;1.58;;;7.70;99.90;;;;;;5059606;28;20051;-71
2022/04/05 07:05:01;;;;;;;6.32;1.42;;;7.70;99.90;;;;;;5060801;28;20029;-71
2022/04/05 07:07:27;;;;;;;6.75;1.50;;;7.80;99.90;;;;;;5059093;28;20581;-72
2022/04/05 07:09:52;;;;;;;5.80;1.35;;;7.70;99.90;;;;;;5046883;28;20021;-71
2022/04/05 07:12:18;;;;;;;8.18;1.60;;;7.70;99.90;;;;;;5077095;28;20472;-71
2022/04/05 07:14:44;;;;;;;7.38;1.45;;;7.80;99.90;;;;;;5062237;28;20025;-71
2022/04/05 07:17:10;;;;;;;7.25;1.35;;;7.80;99.90;;;;;;5062293;28;20037;-71
2022/04/05 07:19:35;;;;;;;8.65;1.70;;;7.80;99.90;;;;;;5060366;28;20165;-72
2022/04/05 07:22:02;;;;;;;6.32;1.85;;;7.80;99.90;;;;;;5044476;28;20258;-71
2022/04/05 07:24:28;;;;;;;6.18;1.35;;;7.80;99.90;;;;;;5061036;28;20064;-71
2022/04/05 07:26:55;;;;;;;7.22;1.50;;;7.80;99.90;;;;;;5062423;28;20465;-70
2022/04/05 07:29:20;;;;;;;6.03;1.40;;;7.90;99.90;;;;;;5058854;28;20106;-70
2022/04/05 07:31:46;;;;;;;8.40;1.85;;;7.90;99.90;;;;;;5057345;28;20155;-77
2022/04/05 07:34:12;;;;;;;7.82;1.67;;;8.10;99.90;;;;;;5058591;28;20021;-77
2022/04/05 07:36:38;;;;;;;7.07;1.30;;;8.20;99.90;;;;;;5056696;28;20029;-70
2022/04/05 07:39:04;;;;;;;5.63;1.13;;;8.30;99.90;;;;;;5063242;28;20024;-70
2022/04/05 07:41:29;;;;;;;7.10;1.30;;;8.40;99.90;;;;;;5042882;28;20456;-70
2022/04/05 07:43:55;;;;;;;6.97;1.63;;;8.50;99.90;;;;;;5055402;28;20025;-70
2022/04/05 07:46:21;;;;;;;7.60;1.75;;;8.60;99.90;;;;;;5049800;28;20021;-70
2022/04/05 07:48:47;;;;;;;8.10;1.33;;;8.70;99.90;;;;;;5057514;28;20032;-69
2022/04/05 07:51:14;;;;;;;7.80;1.40;;;8.70;99.90;;;;;;5052594;28;20056;-69
2022/04/05 07:53:39;;;;;;;6.45;1.95;;;8.70;99.90;;;;;;5059583;28;20025;-69
2022/04/05 07:56:05;;;;;;;7.57;1.38;;;8.70;99.90;;;;;;5059489;28;20024;-70
2022/04/05 07:58:31;;;;;;;6.45;1.67;;;8.70;99.90;;;;;;5054931;28;20463;-70
2022/04/05 08:00:56;;;;;;;6.13;1.30;;;8.60;99.90;;;;;;5058305;28;20033;-70
2022/04/05 08:03:23;;;;;;;7.07;1.30;;;8.70;99.90;;;;;;5057545;28;20671;-69
2022/04/05 08:05:51;;;;;;;7.20;1.40;;;8.70;99.90;;;;;;5048061;28;20040;-69
2022/04/05 08:08:17;;;;;;;5.53;1.55;;;8.70;99.90;;;;;;5063285;28;20035;-69
2022/04/05 08:10:42;;;;;;;6.47;1.38;;;8.70;99.90;;;;;;5059896;28;20108;-70
2022/04/05 08:13:09;;;;;;;5.40;1.40;;;8.70;99.90;;;;;;5044864;28;20029;-69
2022/04/05 08:15:35;;;;;;;6.35;1.40;;;8.60;99.90;;;;;;5045724;28;20033;-70
2022/04/05 08:18:03;;;;;;;4.32;1.30;;;8.70;99.90;;;;;;5057557;28;20035;-70
2022/04/05 08:20:29;;;;;;;7.22;1.40;;;8.60;99.90;;;;;;5054356;28;20034;-69
2022/04/05 08:22:54;;;;;;;7.95;1.50;;;8.80;99.90;;;;;;5057537;28;20058;-69
2022/04/05 08:25:21;;;;;;;7.70;1.63;;;8.80;99.90;;;;;;5051345;28;20048;-71
2022/04/05 08:27:48;;;;;;;5.38;1.25;;;8.80;99.90;;;;;;5059426;28;20458;-70
2022/04/05 08:30:17;;;;;;;5.50;1.30;;;8.80;99.90;;;;;;5062804;28;20560;-70
2022/04/05 08:32:44;;;;;;;4.72;1.40;;;8.90;99.90;;;;;;5057744;28;20060;-70
2022/04/05 08:35:12;;;;;;;4.80;1.52;;;8.90;99.90;;;;;;5058048;28;20036;-70
2022/04/05 08:37:41;;;;;;;6.38;1.50;;;8.90;99.90;;;;;;5061197;28;20033;-70
2022/04/05 08:40:08;;;;;;;5.43;1.52;;;9.00;99.90;;;;;;5063609;28;20048;-70
2022/04/05 08:42:35;;;;;;;5.68;1.50;;;9.10;99.90;;;;;;5064333;28;20074;-70
2022/04/05 08:45:04;;;;;;;6.80;1.52;;;9.10;99.90;;;;;;5058449;28;20017;-70
2022/04/05 08:47:31;;;;;;;8.05;1.50;;;9.10;99.90;;;;;;5060518;28;20035;-70
2022/04/05 08:49:57;;;;;;;5.65;1.50;;;9.10;99.90;;;;;;5053873;28;20068;-70
2022/04/05 08:52:23;;;;;;;5.18;1.33;;;9.10;99.90;;;;;;5058966;28;20088;-70
2022/04/05 08:54:49;;;;;;;5.90;1.52;;;9.20;99.90;;;;;;5058517;28;20029;-70
2022/04/05 08:57:15;;;;;;;5.65;1.33;;;9.20;99.90;;;;;;5051578;28;20449;-70
2022/04/05 08:59:40;;;;;;;7.07;1.60;;;9.30;99.90;;;;;;5054017;28;20065;-70
2022/04/05 09:02:07;;;;;;;4.68;1.60;;;9.40;99.90;;;;;;5047428;28;20060;-70
2022/04/05 09:04:33;;;;;;;6.50;1.40;;;9.50;99.90;;;;;;5058542;28;20046;-70
2022/04/05 09:07:21;;;;;;;7.10;1.40;;;9.50;99.90;;;;;;5054014;28;20021;-70
2022/04/05 09:10:13;;;;;;;5.38;1.27;;;9.50;99.90;;;;;;5043918;28;20033;-70
2022/04/05 09:12:49;;;;;;;4.82;0.98;;;9.50;99.90;;;;;;5058394;28;20580;-70
2022/04/05 09:15:23;;;;;;;4.00;1.20;;;9.50;99.90;;;;;;5078922;28;20017;-70
2022/04/05 09:17:49;;;;;;;4.40;1.05;;;9.50;99.90;;;;;;5052439;28;20026;-70
2022/04/05 09:20:17;;;;;;;6.50;1.23;;;9.60;99.90;;;;;;5044168;28;20049;-70
2022/04/05 09:22:43;;;;;;;4.32;1.10;;;9.60;99.90;;;;;;5059045;28;20129;-70
2022/04/05 09:25:16;;;;;;;5.20;1.10;;;9.60;99.90;;;;;;5050931;28;20563;-70
2022/04/05 09:27:57;;;;;;;4.00;0.93;;;9.80;99.90;;;;;;5048600;28;20039;-71
2022/04/05 09:30:28;;;;;;;4.30;1.10;;;9.80;99.90;;;;;;5047811;28;20017;-70
2022/04/05 09:32:55;;;;;;;4.03;1.00;;;9.80;99.90;;;;;;5055411;28;20551;-70
2022/04/05 09:35:27;;;;;;;3.80;0.90;;;10.00;99.90;;;;;;5048906;28;20030;-70
2022/04/05 09:38:12;;;;;;;4.13;0.80;;;10.00;99.90;;;;;;5046157;28;20673;-70
2022/04/05 09:40:38;;;;;;;3.88;0.80;;;10.00;99.90;;;;;;5055306;28;20040;-70
2022/04/05 09:43:09;;;;;;;3.83;1.00;;;10.10;99.90;;;;;;5060973;28;20017;-70
2022/04/05 09:45:53;;;;;;;3.65;0.90;;;10.10;99.90;;;;;;5041430;28;20034;-70
2022/04/05 09:48:25;;;;;;;4.38;0.98;;;10.00;99.90;;;;;;5040360;28;20535;-70
2022/04/05 09:51:04;;;;;;;3.47;0.80;;;10.00;99.90;;;;;;5043786;28;20036;-70
2022/04/05 09:53:40;;;;;;;4.22;1.00;;;10.10;99.90;;;;;;5058405;28;20040;-70
2022/04/05 09:56:12;;;;;;;3.53;0.70;;;10.00;99.90;;;;;;5053235;28;20030;-70
2022/04/05 09:58:50;;;;;;;4.40;1.10;;;9.90;99.90;;;;;;5076078;28;20029;-70
2022/04/05 10:01:20;;;;;;;4.50;1.35;;;9.90;99.90;;;;;;5048859;28;20049;-70
2022/04/05 10:04:16;;;;;;;4.57;1.10;;;9.80;99.90;;;;;;5053694;28;20106;-70
2022/04/05 10:06:46;;;;;;;4.30;1.20;;;9.90;99.90;;;;;;5047436;28;20090;-70
2022/04/05 10:09:15;;;;;;;4.22;1.10;;;9.90;99.90;;;;;;5050095;28;20128;-71
2022/04/05 10:11:42;;;;;;;5.22;1.40;;;9.90;99.90;;;;;;5054028;28;20017;-70
2022/04/05 10:14:10;;;;;;;5.10;1.60;;;9.90;99.90;;;;;;5055355;28;20016;-71
2022/04/05 10:16:37;;;;;;;4.80;1.60;;;9.90;99.90;;;;;;5055457;28;20047;-70
2022/04/05 10:19:06;;;;;;;5.57;1.92;;;9.90;99.90;;;;;;5063647;28;20516;-71
2022/04/05 10:21:36;;;;;;;5.97;1.98;;;9.90;99.90;;;;;;5053306;28;20523;-71
2022/04/05 10:24:05;;;;;;;6.45;2.45;;;10.20;99.90;;;;;;5053821;28;20029;-81
2022/04/05 10:26:39;;;;;;;6.18;2.40;;;10.10;99.90;;;;;;5056756;28;20424;-71
2022/04/05 10:29:15;;;;;;;6.13;2.40;;;10.20;99.90;;;;;;5047744;28;20024;-69
2022/04/05 10:32:03;;;;;;;5.93;2.38;;;10.20;99.90;;;;;;5057943;28;20551;-70
2022/04/05 10:34:34;;;;;;;7.18;2.90;;;10.20;99.90;;;;;;5053551;28;20029;-70
2022/04/05 10:37:31;;;;;;;7.57;2.75;;;10.30;99.90;;;;;;5054998;28;20024;-70
2022/04/05 10:39:57;;;;;;;6.32;2.85;;;10.40;99.90;;;;;;5051538;28;20048;-70
2022/04/05 10:42:25;;;;;;;6.63;2.97;;;10.60;99.90;;;;;;5049841;28;20018;-70
2022/04/05 10:45:13;;;;;;;7.28;2.92;;;10.60;99.90;;;;;;5048551;28;20083;-69
2022/04/05 10:48:18;;;;;;;7.72;3.33;;;10.70;99.90;;;;;;5049639;28;20033;-70
2022/04/05 10:51:07;;;;;;;7.40;3.70;;;10.80;99.90;;;;;;5039584;28;20077;-70
2022/04/05 10:53:37;;;;;;;7.22;3.42;;;11.00;99.90;;;;;;5051142;28;20045;-70
2022/04/05 10:56:07;;;;;;;7.97;3.45;;;11.10;99.90;;;;;;5059037;28;20033;-70
2022/04/05 10:58:45;;;;;;;7.30;3.70;;;11.30;99.90;;;;;;5041226;28;20465;-69
2022/04/05 11:01:23;;;;;;;7.35;3.63;;;11.40;99.90;;;;;;5044163;28;20045;-69
2022/04/05 11:04:14;;;;;;;7.80;3.42;;;11.70;99.90;;;;;;5054343;28;20417;-68
2022/04/05 11:06:59;;;;;;;7.37;3.33;;;12.10;99.90;;;;;;5056190;28;20061;-70
2022/04/05 11:09:39;;;;;;;6.93;3.38;;;12.20;99.90;;;;;;5044105;28;20030;-69
2022/04/05 11:12:10;;;;;;;7.05;3.00;;;12.10;99.90;;;;;;5043063;28;20765;-70
2022/04/05 11:14:49;;;;;;;6.57;2.83;;;12.10;99.90;;;;;;5045751;28;20029;-69
2022/04/05 11:17:16;;;;;;;6.80;3.28;;;12.10;99.90;;;;;;5049839;28;20048;-70
2022/04/05 11:19:45;;;;;;;7.03;3.40;;;12.00;99.90;;;;;;5054025;28;20065;-70
2022/04/05 11:22:20;;;;;;;6.82;2.95;;;12.00;99.90;;;;;;5055885;28;20028;-69
2022/04/05 11:24:54;;;;;;;6.28;3.15;;;12.00;99.90;;;;;;5054368;28;20044;-69
2022/04/05 11:27:38;;;;;;;6.13;2.58;;;12.30;99.90;;;;;;5054087;28;20087;-69
2022/04/05 11:33:09;;;;;;;6.78;3.00;;;13.30;99.90;;;;;;5051147;28;20030;-71
2022/04/05 11:36:07;;;;;;;6.70;3.03;;;13.20;99.90;;;;;;5055489;28;20029;-72
2022/04/05 11:38:38;;;;;;;6.47;3.05;;;13.00;99.90;;;;;;5051498;28;20417;-71
2022/04/05 11:41:31;;;;;;;6.03;2.80;;;12.90;99.90;;;;;;5056605;28;20064;-70
2022/04/05 11:44:02;;;;;;;6.40;2.72;;;12.70;99.90;;;;;;5055655;28;20049;-69
2022/04/05 11:46:30;;;;;;;7.25;3.30;;;12.50;99.90;;;;;;5040998;28;20072;-69
2022/04/05 11:48:58;;;;;;;7.07;3.17;;;12.30;99.90;;;;;;5052312;28;20040;-70
2022/04/05 11:51:46;;;;;;;6.97;3.53;;;12.30;99.90;;;;;;5049197;28;20727;-69
2022/04/05 11:54:23;;;;;;;9.35;3.70;;;12.40;99.90;;;;;;5048859;28;20037;-70
2022/04/05 11:56:49;;;;;;;9.07;4.20;;;12.50;99.90;;;;;;5058308;28;20429;-69
2022/04/05 11:59:17;;;;;;;9.35;4.38;;;12.60;99.90;;;;;;5055186;28;20037;-69
2022/04/05 12:01:45;;;;;;;8.57;4.30;;;12.60;99.90;;;;;;5054012;28;20045;-68
2022/04/05 12:04:20;;;;;;;7.43;3.90;;;12.40;99.90;;;;;;5052154;28;20060;-68
2022/04/05 12:06:48;;;;;;;9.07;4.28;;;12.30;99.90;;;;;;5047500;28;20769;-68
2022/04/05 12:09:16;;;;;;;9.15;4.25;;;12.20;99.90;;;;;;5057953;28;20020;-68
2022/04/05 12:11:48;;;;;;;8.75;4.30;;;12.40;99.90;;;;;;5050924;28;20028;-69
2022/04/05 12:14:16;;;;;;;9.95;4.38;;;12.30;99.90;;;;;;5049990;28;20030;-69
2022/04/05 12:16:56;;;;;;;10.80;4.32;;;12.20;99.90;;;;;;5056668;28;20103;-68
2022/04/05 12:19:42;;;;;;;10.93;4.60;;;12.20;99.90;;;;;;5051004;28;20088;-68
2022/04/05 12:22:14;;;;;;;9.30;4.43;;;12.00;99.90;;;;;;5054674;28;20079;-68
2022/04/05 12:24:50;;;;;;;11.95;4.32;;;12.00;99.90;;;;;;5044601;28;20409;-69
2022/04/05 12:27:22;;;;;;;8.98;3.95;;;12.00;99.90;;;;;;5036523;28;20044;-69
2022/04/05 12:29:48;;;;;;;8.18;3.55;;;12.00;99.90;;;;;;5055506;28;20116;-69
2022/04/05 12:32:14;;;;;;;7.63;3.40;;;12.00;99.90;;;;;;5054742;28;20017;-69
2022/04/05 12:34:41;;;;;;;10.60;4.38;;;12.00;99.90;;;;;;5055891;28;20033;-69
2022/04/05 12:37:14;;;;;;;9.45;3.67;;;11.90;99.90;;;;;;5051041;28;20032;-69
2022/04/05 12:39:46;;;;;;;10.43;4.03;;;11.90;99.90;;;;;;5059068;28;20085;-69
2022/04/05 12:42:12;;;;;;;9.82;3.63;;;11.70;99.90;;;;;;5055835;28;20042;-69
2022/04/05 12:44:43;;;;;;;9.27;3.92;;;11.70;99.90;;;;;;5056222;28;20067;-69
2022/04/05 12:47:14;;;;;;;7.47;2.70;;;11.50;99.90;;;;;;5057365;28;20043;-70
2022/04/05 12:49:41;;;;;;;9.15;3.60;;;11.50;99.90;;;;;;5043313;28;20028;-71
2022/04/05 12:52:14;;;;;;;8.25;3.90;;;11.40;99.90;;;;;;5058362;28;20025;-71
2022/04/05 12:54:56;;;;;;;9.55;4.45;;;11.30;99.90;;;;;;5045630;28;20044;-70
2022/04/05 12:57:28;;;;;;;10.38;3.80;;;11.20;99.90;;;;;;5034919;28;20100;-71
2022/04/05 13:00:12;;;;;;;8.38;3.80;;;11.20;99.90;;;;;;5052996;28;20057;-71
2022/04/05 13:02:46;;;;;;;9.93;4.28;;;11.10;99.90;;;;;;5053441;28;20045;-71